Milwaukee, WI (53217)

10:32 PM CST on December 07, 2016 (GMT -0600)
Milwaukee Area | | Change Station

Elev 699 ft 43.15 °N, 87.91 °W | Updated 2 seconds ago

Overcast
Overcast
22.5 °F
Feels Like 17 °F
N
4.0
Wind Variable Wind from NE
Gusts 5.0 mph

Today
High -- | Low -- °F
--% Chance of Precip.
Yesterday
High -- | Low -- °F
Precip. -- in
Pressure 30.08 in
Visibility 10.0 miles
Clouds Overcast 2400 ft
Windchill 17 °F
Dew Point 16 °F
Humidity 76%
Rainfall 0.00 in
Snow Depth Not available.
7:10 AM 4:16 PM
First Quarter, 59% visible
METAR KMWC 080415Z AUTO 27016G19KT 10SM -SN OVC024 M06/M11 A3008 RMK AO2
Pressure 30.08 in
Visibility 10.0 miles
Clouds Overcast 2400 ft
Windchill 17 °F
Dew Point 16 °F
Humidity 76%
Rainfall 0.00 in
Snow Depth Not available.
7:10 AM 4:16 PM
First Quarter, 59% visible
METAR KMWC 080415Z AUTO 27016G19KT 10SM -SN OVC024 M06/M11 A3008 RMK AO2

10-Day Weather Forecast

Almanac

Astronomy

Dec. 07, 2016 Rise Set
Actual Time
Civil Twilight
Nautical Twilight
Astronomical Twilight
Moon
Length of Visible Light
Length of Day
Tomorrow will be .
, % of the Moon is Illuminated

Today's Extremes

State Highs State Lows

Community

WunderPhotos

Upload Photos

1,956,259 photos uploaded!

WunderBlog® & News

Nearby

Air Quality

  Air Quality AQ Index Pollutant
Not available.

Snow Depth

Station Depth Elevation

Earthquake Activity

City Distance Mag. Time & Date
Minimum magnitude displayed is 2.5.

Coastal Water Temperatures

Place Temperature

Stations

Nearby Weather Stations

Station Location Temp. Windchill Dew Point Humidity Wind Precip. Elev Updated Type
                   

Watches & Warnings

There are currently no watches in effect.